<?xml version="1.0" encoding="UTF-8" standalone="no" ?>
<gpx xmlns="http://www.topografix.com/GPX/1/1" xmlns:xsi="http://www.w3.org/2001/XMLSchema-instance" xsi:schemaLocation="http://www.topografix.com/GPX/1/1 http://www.topografix.com/GPX/1/1/gpx.xsd" version="1.1" creator="VisuGPX - https://www.visugpx.com">
  <metadata>
    <name>Gth34-2 Fagairoles - Dio Falguieres</name>
    <desc><![CDATA[Grande Traversée de l\' Héraut tracé nord  Etape 2 : Fagairoles - Dio Falguieres ]]></desc>
  </metadata>
  <trk>
    <name><![CDATA[Gth34-2 Fagairoles - Dio Falguieres]]></name>
    <trkseg>
      <trkpt lat="43.68681" lon="2.92359">
        <ele>817</ele>
        <time>2014-06-23T06:05:20Z</time>
      </trkpt>
      <trkpt lat="43.68558" lon="2.92446">
        <ele>818.2</ele>
        <time>2014-06-23T06:38:01Z</time>
      </trkpt>
      <trkpt lat="43.68506" lon="2.92518">
        <ele>821.2</ele>
        <time>2014-06-23T06:38:36Z</time>
      </trkpt>
      <trkpt lat="43.68485" lon="2.92558">
        <ele>822.8</ele>
        <time>2014-06-23T06:38:56Z</time>
      </trkpt>
      <trkpt lat="43.68572" lon="2.92619">
        <ele>821.1</ele>
        <time>2014-06-23T06:40:06Z</time>
      </trkpt>
      <trkpt lat="43.68747" lon="2.9279">
        <ele>823.7</ele>
        <time>2014-06-23T06:41:37Z</time>
      </trkpt>
      <trkpt lat="43.68807" lon="2.92899">
        <ele>823.6</ele>
        <time>2014-06-23T06:42:15Z</time>
      </trkpt>
      <trkpt lat="43.68863" lon="2.92928">
        <ele>819.6</ele>
        <time>2014-06-23T06:42:31Z</time>
      </trkpt>
      <trkpt lat="43.689" lon="2.92873">
        <ele>815.3</ele>
        <time>2014-06-23T06:42:45Z</time>
      </trkpt>
      <trkpt lat="43.68967" lon="2.92932">
        <ele>810.2</ele>
        <time>2014-06-23T06:43:06Z</time>
      </trkpt>
      <trkpt lat="43.69031" lon="2.92974">
        <ele>811.3</ele>
        <time>2014-06-23T06:43:39Z</time>
      </trkpt>
      <trkpt lat="43.69071" lon="2.93106">
        <ele>809</ele>
        <time>2014-06-23T06:44:13Z</time>
      </trkpt>
      <trkpt lat="43.69075" lon="2.93193">
        <ele>810.3</ele>
        <time>2014-06-23T06:44:30Z</time>
      </trkpt>
      <trkpt lat="43.69117" lon="2.93255">
        <ele>809.2</ele>
        <time>2014-06-23T06:44:46Z</time>
      </trkpt>
      <trkpt lat="43.69137" lon="2.93322">
        <ele>811</ele>
        <time>2014-06-23T06:45:55Z</time>
      </trkpt>
      <trkpt lat="43.69286" lon="2.93517">
        <ele>813.3</ele>
        <time>2014-06-23T06:47:30Z</time>
      </trkpt>
      <trkpt lat="43.69274" lon="2.93604">
        <ele>809.9</ele>
        <time>2014-06-23T06:48:29Z</time>
      </trkpt>
      <trkpt lat="43.69312" lon="2.93637">
        <ele>804.5</ele>
        <time>2014-06-23T06:48:50Z</time>
      </trkpt>
      <trkpt lat="43.69379" lon="2.93634">
        <ele>809.7</ele>
        <time>2014-06-23T06:49:16Z</time>
      </trkpt>
      <trkpt lat="43.69405" lon="2.93684">
        <ele>813.6</ele>
        <time>2014-06-23T06:49:45Z</time>
      </trkpt>
      <trkpt lat="43.69423" lon="2.9379">
        <ele>813.7</ele>
        <time>2014-06-23T06:50:12Z</time>
      </trkpt>
      <trkpt lat="43.69462" lon="2.93876">
        <ele>813</ele>
        <time>2014-06-23T06:50:29Z</time>
      </trkpt>
      <trkpt lat="43.69515" lon="2.94072">
        <ele>820.9</ele>
        <time>2014-06-23T06:51:27Z</time>
      </trkpt>
      <trkpt lat="43.69539" lon="2.94199">
        <ele>821.8</ele>
        <time>2014-06-23T06:51:56Z</time>
      </trkpt>
      <trkpt lat="43.69561" lon="2.94266">
        <ele>820.7</ele>
        <time>2014-06-23T06:52:07Z</time>
      </trkpt>
      <trkpt lat="43.69583" lon="2.94479">
        <ele>830.4</ele>
        <time>2014-06-23T06:53:15Z</time>
      </trkpt>
      <trkpt lat="43.69566" lon="2.94607">
        <ele>833.3</ele>
        <time>2014-06-23T06:53:53Z</time>
      </trkpt>
      <trkpt lat="43.696" lon="2.94717">
        <ele>838.1</ele>
        <time>2014-06-23T06:54:31Z</time>
      </trkpt>
      <trkpt lat="43.69603" lon="2.94747">
        <ele>839.8</ele>
        <time>2014-06-23T06:54:42Z</time>
      </trkpt>
      <trkpt lat="43.69671" lon="2.95053">
        <ele>841.4</ele>
        <time>2014-06-23T06:55:58Z</time>
      </trkpt>
      <trkpt lat="43.6967" lon="2.95151">
        <ele>842</ele>
        <time>2014-06-23T06:56:20Z</time>
      </trkpt>
      <trkpt lat="43.69749" lon="2.95247">
        <ele>847.2</ele>
        <time>2014-06-23T06:57:00Z</time>
      </trkpt>
      <trkpt lat="43.69858" lon="2.9543">
        <ele>847.2</ele>
        <time>2014-06-23T06:57:48Z</time>
      </trkpt>
      <trkpt lat="43.6988" lon="2.95481">
        <ele>848.1</ele>
        <time>2014-06-23T06:58:01Z</time>
      </trkpt>
      <trkpt lat="43.69943" lon="2.95726">
        <ele>849.7</ele>
        <time>2014-06-23T06:58:55Z</time>
      </trkpt>
      <trkpt lat="43.69955" lon="2.95787">
        <ele>852.1</ele>
        <time>2014-06-23T07:01:41Z</time>
      </trkpt>
      <trkpt lat="43.70021" lon="2.95809">
        <ele>850.5</ele>
        <time>2014-06-23T07:02:04Z</time>
      </trkpt>
      <trkpt lat="43.70106" lon="2.95816">
        <ele>848.5</ele>
        <time>2014-06-23T07:02:22Z</time>
      </trkpt>
      <trkpt lat="43.70152" lon="2.95842">
        <ele>847.2</ele>
        <time>2014-06-23T07:02:30Z</time>
      </trkpt>
      <trkpt lat="43.70214" lon="2.95928">
        <ele>845.2</ele>
        <time>2014-06-23T07:02:44Z</time>
      </trkpt>
      <trkpt lat="43.70353" lon="2.95995">
        <ele>841.5</ele>
        <time>2014-06-23T07:03:09Z</time>
      </trkpt>
      <trkpt lat="43.7032" lon="2.96074">
        <ele>844.3</ele>
        <time>2014-06-23T07:03:45Z</time>
      </trkpt>
      <trkpt lat="43.70249" lon="2.96055">
        <ele>848.4</ele>
        <time>2014-06-23T07:04:20Z</time>
      </trkpt>
      <trkpt lat="43.70165" lon="2.96002">
        <ele>852.5</ele>
        <time>2014-06-23T07:05:03Z</time>
      </trkpt>
      <trkpt lat="43.70125" lon="2.95947">
        <ele>855.1</ele>
        <time>2014-06-23T07:05:27Z</time>
      </trkpt>
      <trkpt lat="43.70077" lon="2.95896">
        <ele>857.4</ele>
        <time>2014-06-23T07:05:51Z</time>
      </trkpt>
      <trkpt lat="43.70114" lon="2.96035">
        <ele>865.5</ele>
        <time>2014-06-23T07:06:52Z</time>
      </trkpt>
      <trkpt lat="43.70152" lon="2.96076">
        <ele>868.2</ele>
        <time>2014-06-23T07:07:13Z</time>
      </trkpt>
      <trkpt lat="43.70228" lon="2.962">
        <ele>875.7</ele>
        <time>2014-06-23T07:08:09Z</time>
      </trkpt>
      <trkpt lat="43.7024" lon="2.96232">
        <ele>877.9</ele>
        <time>2014-06-23T07:08:22Z</time>
      </trkpt>
      <trkpt lat="43.70269" lon="2.96343">
        <ele>883.2</ele>
        <time>2014-06-23T07:09:06Z</time>
      </trkpt>
      <trkpt lat="43.70304" lon="2.96435">
        <ele>889.6</ele>
        <time>2014-06-23T07:09:46Z</time>
      </trkpt>
      <trkpt lat="43.7033" lon="2.96552">
        <ele>893.8</ele>
        <time>2014-06-23T07:10:29Z</time>
      </trkpt>
      <trkpt lat="43.70348" lon="2.9659">
        <ele>895.5</ele>
        <time>2014-06-23T07:10:43Z</time>
      </trkpt>
      <trkpt lat="43.70412" lon="2.96627">
        <ele>900</ele>
        <time>2014-06-23T07:11:16Z</time>
      </trkpt>
      <trkpt lat="43.70512" lon="2.96794">
        <ele>904.8</ele>
        <time>2014-06-23T07:12:15Z</time>
      </trkpt>
      <trkpt lat="43.70537" lon="2.96899">
        <ele>906.6</ele>
        <time>2014-06-23T07:12:40Z</time>
      </trkpt>
      <trkpt lat="43.70497" lon="2.9698">
        <ele>907.1</ele>
        <time>2014-06-23T07:13:01Z</time>
      </trkpt>
      <trkpt lat="43.70532" lon="2.97091">
        <ele>907.6</ele>
        <time>2014-06-23T07:13:23Z</time>
      </trkpt>
      <trkpt lat="43.7051" lon="2.97178">
        <ele>907</ele>
        <time>2014-06-23T07:13:39Z</time>
      </trkpt>
      <trkpt lat="43.70546" lon="2.97302">
        <ele>906.7</ele>
        <time>2014-06-23T07:14:03Z</time>
      </trkpt>
      <trkpt lat="43.70636" lon="2.97368">
        <ele>910.8</ele>
        <time>2014-06-23T07:14:33Z</time>
      </trkpt>
      <trkpt lat="43.70617" lon="2.97472">
        <ele>915.1</ele>
        <time>2014-06-23T07:15:05Z</time>
      </trkpt>
      <trkpt lat="43.7056" lon="2.97533">
        <ele>919.7</ele>
        <time>2014-06-23T07:15:38Z</time>
      </trkpt>
      <trkpt lat="43.70553" lon="2.97626">
        <ele>925</ele>
        <time>2014-06-23T07:16:13Z</time>
      </trkpt>
      <trkpt lat="43.70581" lon="2.97688">
        <ele>929.7</ele>
        <time>2014-06-23T07:16:45Z</time>
      </trkpt>
      <trkpt lat="43.70638" lon="2.9777">
        <ele>934.8</ele>
        <time>2014-06-23T07:17:30Z</time>
      </trkpt>
      <trkpt lat="43.70655" lon="2.9783">
        <ele>937.8</ele>
        <time>2014-06-23T07:17:52Z</time>
      </trkpt>
      <trkpt lat="43.70675" lon="2.97969">
        <ele>943.9</ele>
        <time>2014-06-23T07:18:44Z</time>
      </trkpt>
      <trkpt lat="43.70673" lon="2.98087">
        <ele>949.8</ele>
        <time>2014-06-23T07:19:36Z</time>
      </trkpt>
      <trkpt lat="43.70707" lon="2.98184">
        <ele>952.9</ele>
        <time>2014-06-23T07:20:09Z</time>
      </trkpt>
      <trkpt lat="43.70745" lon="2.98233">
        <ele>954.4</ele>
        <time>2014-06-23T07:20:30Z</time>
      </trkpt>
      <trkpt lat="43.70755" lon="2.9849">
        <ele>958.1</ele>
        <time>2014-06-23T07:21:37Z</time>
      </trkpt>
      <trkpt lat="43.70704" lon="2.98535">
        <ele>958.5</ele>
        <time>2014-06-23T07:21:54Z</time>
      </trkpt>
      <trkpt lat="43.70566" lon="2.9852">
        <ele>957.7</ele>
        <time>2014-06-23T07:22:34Z</time>
      </trkpt>
      <trkpt lat="43.70474" lon="2.98555">
        <ele>961.6</ele>
        <time>2014-06-23T07:30:18Z</time>
      </trkpt>
      <trkpt lat="43.70417" lon="2.98623">
        <ele>955.7</ele>
        <time>2014-06-23T07:30:31Z</time>
      </trkpt>
      <trkpt lat="43.70387" lon="2.98686">
        <ele>950.4</ele>
        <time>2014-06-23T07:30:41Z</time>
      </trkpt>
      <trkpt lat="43.70404" lon="2.98778">
        <ele>943</ele>
        <time>2014-06-23T07:30:56Z</time>
      </trkpt>
      <trkpt lat="43.70465" lon="2.98814">
        <ele>941.7</ele>
        <time>2014-06-23T07:31:17Z</time>
      </trkpt>
      <trkpt lat="43.70484" lon="2.98905">
        <ele>946.8</ele>
        <time>2014-06-23T07:31:48Z</time>
      </trkpt>
      <trkpt lat="43.70526" lon="2.9903">
        <ele>941.4</ele>
        <time>2014-06-23T07:32:14Z</time>
      </trkpt>
      <trkpt lat="43.70515" lon="2.99135">
        <ele>935.8</ele>
        <time>2014-06-23T07:32:29Z</time>
      </trkpt>
      <trkpt lat="43.70552" lon="2.99245">
        <ele>930</ele>
        <time>2014-06-23T07:32:46Z</time>
      </trkpt>
      <trkpt lat="43.70553" lon="2.99339">
        <ele>925.6</ele>
        <time>2014-06-23T07:32:55Z</time>
      </trkpt>
      <trkpt lat="43.7064" lon="2.99418">
        <ele>918</ele>
        <time>2014-06-23T07:33:12Z</time>
      </trkpt>
      <trkpt lat="43.7062" lon="2.99522">
        <ele>913.8</ele>
        <time>2014-06-23T07:33:26Z</time>
      </trkpt>
      <trkpt lat="43.70541" lon="2.99633">
        <ele>908.4</ele>
        <time>2014-06-23T07:33:41Z</time>
      </trkpt>
      <trkpt lat="43.70538" lon="2.99709">
        <ele>903.3</ele>
        <time>2014-06-23T07:33:58Z</time>
      </trkpt>
      <trkpt lat="43.70624" lon="2.99705">
        <ele>893.7</ele>
        <time>2014-06-23T07:34:12Z</time>
      </trkpt>
      <trkpt lat="43.70591" lon="2.998">
        <ele>881.3</ele>
        <time>2014-06-23T07:34:35Z</time>
      </trkpt>
      <trkpt lat="43.70644" lon="2.99798">
        <ele>877.8</ele>
        <time>2014-06-23T07:34:45Z</time>
      </trkpt>
      <trkpt lat="43.70708" lon="2.99833">
        <ele>874.5</ele>
        <time>2014-06-23T07:34:55Z</time>
      </trkpt>
      <trkpt lat="43.70747" lon="2.99928">
        <ele>866.2</ele>
        <time>2014-06-23T07:35:08Z</time>
      </trkpt>
      <trkpt lat="43.70738" lon="3.00074">
        <ele>860.6</ele>
        <time>2014-06-23T07:35:23Z</time>
      </trkpt>
      <trkpt lat="43.70702" lon="3.00135">
        <ele>860</ele>
        <time>2014-06-23T07:35:33Z</time>
      </trkpt>
      <trkpt lat="43.70666" lon="3.0017">
        <ele>865.3</ele>
        <time>2014-06-23T07:40:57Z</time>
      </trkpt>
      <trkpt lat="43.70628" lon="3.00248">
        <ele>870.1</ele>
        <time>2014-06-23T07:41:42Z</time>
      </trkpt>
      <trkpt lat="43.70592" lon="3.00393">
        <ele>877.8</ele>
        <time>2014-06-23T07:42:38Z</time>
      </trkpt>
      <trkpt lat="43.70571" lon="3.00445">
        <ele>881.6</ele>
        <time>2014-06-23T07:43:37Z</time>
      </trkpt>
      <trkpt lat="43.70627" lon="3.00712">
        <ele>899.9</ele>
        <time>2014-06-23T07:45:43Z</time>
      </trkpt>
      <trkpt lat="43.70628" lon="3.00744">
        <ele>902.3</ele>
        <time>2014-06-23T07:45:59Z</time>
      </trkpt>
      <trkpt lat="43.70577" lon="3.00994">
        <ele>920.8</ele>
        <time>2014-06-23T07:48:02Z</time>
      </trkpt>
      <trkpt lat="43.70579" lon="3.01123">
        <ele>933.7</ele>
        <time>2014-06-23T07:49:16Z</time>
      </trkpt>
      <trkpt lat="43.70626" lon="3.0122">
        <ele>947.9</ele>
        <time>2014-06-23T07:50:32Z</time>
      </trkpt>
      <trkpt lat="43.70613" lon="3.01255">
        <ele>952.9</ele>
        <time>2014-06-23T07:51:10Z</time>
      </trkpt>
      <trkpt lat="43.70542" lon="3.01182">
        <ele>965</ele>
        <time>2014-06-23T07:52:24Z</time>
      </trkpt>
      <trkpt lat="43.70507" lon="3.01158">
        <ele>969.6</ele>
        <time>2014-06-23T07:52:53Z</time>
      </trkpt>
      <trkpt lat="43.70353" lon="3.01248">
        <ele>986.8</ele>
        <time>2014-06-23T07:54:48Z</time>
      </trkpt>
      <trkpt lat="43.70204" lon="3.01293">
        <ele>964.1</ele>
        <time>2014-06-23T08:05:26Z</time>
      </trkpt>
      <trkpt lat="43.70087" lon="3.01306">
        <ele>951.6</ele>
        <time>2014-06-23T08:06:01Z</time>
      </trkpt>
      <trkpt lat="43.69905" lon="3.0124">
        <ele>932.3</ele>
        <time>2014-06-23T08:07:00Z</time>
      </trkpt>
      <trkpt lat="43.69838" lon="3.01273">
        <ele>926.4</ele>
        <time>2014-06-23T08:07:15Z</time>
      </trkpt>
      <trkpt lat="43.69766" lon="3.01264">
        <ele>918.9</ele>
        <time>2014-06-23T08:07:34Z</time>
      </trkpt>
      <trkpt lat="43.69737" lon="3.01366">
        <ele>915</ele>
        <time>2014-06-23T08:08:29Z</time>
      </trkpt>
      <trkpt lat="43.69598" lon="3.01428">
        <ele>902.2</ele>
        <time>2014-06-23T08:09:14Z</time>
      </trkpt>
      <trkpt lat="43.69665" lon="3.01659">
        <ele>886.5</ele>
        <time>2014-06-23T08:10:28Z</time>
      </trkpt>
      <trkpt lat="43.69703" lon="3.01734">
        <ele>882.8</ele>
        <time>2014-06-23T08:19:30Z</time>
      </trkpt>
      <trkpt lat="43.69663" lon="3.01815">
        <ele>879.3</ele>
        <time>2014-06-23T08:19:52Z</time>
      </trkpt>
      <trkpt lat="43.6959" lon="3.01883">
        <ele>868.5</ele>
        <time>2014-06-23T08:20:21Z</time>
      </trkpt>
      <trkpt lat="43.69493" lon="3.02079">
        <ele>852.8</ele>
        <time>2014-06-23T08:21:00Z</time>
      </trkpt>
      <trkpt lat="43.69463" lon="3.02154">
        <ele>844.7</ele>
        <time>2014-06-23T08:21:22Z</time>
      </trkpt>
      <trkpt lat="43.69444" lon="3.02237">
        <ele>837.7</ele>
        <time>2014-06-23T08:21:34Z</time>
      </trkpt>
      <trkpt lat="43.69455" lon="3.02365">
        <ele>835.4</ele>
        <time>2014-06-23T08:22:01Z</time>
      </trkpt>
      <trkpt lat="43.69364" lon="3.0258">
        <ele>810.1</ele>
        <time>2014-06-23T08:22:53Z</time>
      </trkpt>
      <trkpt lat="43.69318" lon="3.02583">
        <ele>805.9</ele>
        <time>2014-06-23T08:23:17Z</time>
      </trkpt>
      <trkpt lat="43.69292" lon="3.02705">
        <ele>808</ele>
        <time>2014-06-23T08:23:54Z</time>
      </trkpt>
      <trkpt lat="43.69337" lon="3.02876">
        <ele>826</ele>
        <time>2014-06-23T08:26:37Z</time>
      </trkpt>
      <trkpt lat="43.69308" lon="3.0299">
        <ele>823.5</ele>
        <time>2014-06-23T08:27:15Z</time>
      </trkpt>
      <trkpt lat="43.69259" lon="3.03035">
        <ele>820.4</ele>
        <time>2014-06-23T08:27:28Z</time>
      </trkpt>
      <trkpt lat="43.69222" lon="3.03248">
        <ele>814.9</ele>
        <time>2014-06-23T08:29:56Z</time>
      </trkpt>
      <trkpt lat="43.6923" lon="3.03329">
        <ele>814.1</ele>
        <time>2014-06-23T08:30:16Z</time>
      </trkpt>
      <trkpt lat="43.69275" lon="3.03427">
        <ele>812</ele>
        <time>2014-06-23T08:30:41Z</time>
      </trkpt>
      <trkpt lat="43.69304" lon="3.03573">
        <ele>798.7</ele>
        <time>2014-06-23T08:31:08Z</time>
      </trkpt>
      <trkpt lat="43.69336" lon="3.03663">
        <ele>794.8</ele>
        <time>2014-06-23T08:31:20Z</time>
      </trkpt>
      <trkpt lat="43.69373" lon="3.03866">
        <ele>777</ele>
        <time>2014-06-23T08:31:51Z</time>
      </trkpt>
      <trkpt lat="43.69401" lon="3.03969">
        <ele>782</ele>
        <time>2014-06-23T08:32:33Z</time>
      </trkpt>
      <trkpt lat="43.69466" lon="3.04074">
        <ele>795.6</ele>
        <time>2014-06-23T08:34:03Z</time>
      </trkpt>
      <trkpt lat="43.69513" lon="3.04176">
        <ele>807.4</ele>
        <time>2014-06-23T08:35:22Z</time>
      </trkpt>
      <trkpt lat="43.69516" lon="3.04291">
        <ele>821.1</ele>
        <time>2014-06-23T08:36:47Z</time>
      </trkpt>
      <trkpt lat="43.69565" lon="3.04329">
        <ele>825.2</ele>
        <time>2014-06-23T08:39:08Z</time>
      </trkpt>
      <trkpt lat="43.69615" lon="3.04321">
        <ele>826.5</ele>
        <time>2014-06-23T08:39:50Z</time>
      </trkpt>
      <trkpt lat="43.69525" lon="3.04366">
        <ele>832.6</ele>
        <time>2014-06-23T08:40:47Z</time>
      </trkpt>
      <trkpt lat="43.6952" lon="3.04387">
        <ele>834.1</ele>
        <time>2014-06-23T08:41:12Z</time>
      </trkpt>
      <trkpt lat="43.69619" lon="3.04375">
        <ele>839</ele>
        <time>2014-06-23T08:42:11Z</time>
      </trkpt>
      <trkpt lat="43.69665" lon="3.04399">
        <ele>840</ele>
        <time>2014-06-23T08:42:35Z</time>
      </trkpt>
      <trkpt lat="43.69708" lon="3.04484">
        <ele>839.9</ele>
        <time>2014-06-23T08:43:01Z</time>
      </trkpt>
      <trkpt lat="43.69723" lon="3.04565">
        <ele>841.5</ele>
        <time>2014-06-23T08:43:20Z</time>
      </trkpt>
      <trkpt lat="43.69717" lon="3.04698">
        <ele>843.3</ele>
        <time>2014-06-23T08:43:52Z</time>
      </trkpt>
      <trkpt lat="43.69677" lon="3.04847">
        <ele>848.8</ele>
        <time>2014-06-23T08:44:39Z</time>
      </trkpt>
      <trkpt lat="43.69638" lon="3.04903">
        <ele>853.6</ele>
        <time>2014-06-23T08:45:11Z</time>
      </trkpt>
      <trkpt lat="43.69636" lon="3.04929">
        <ele>854.5</ele>
        <time>2014-06-23T08:45:22Z</time>
      </trkpt>
      <trkpt lat="43.69639" lon="3.05032">
        <ele>861.7</ele>
        <time>2014-06-23T08:46:14Z</time>
      </trkpt>
      <trkpt lat="43.69577" lon="3.05141">
        <ele>875.7</ele>
        <time>2014-06-23T08:47:43Z</time>
      </trkpt>
      <trkpt lat="43.6957" lon="3.05214">
        <ele>883.2</ele>
        <time>2014-06-23T08:48:32Z</time>
      </trkpt>
      <trkpt lat="43.69538" lon="3.05319">
        <ele>894.8</ele>
        <time>2014-06-23T08:49:45Z</time>
      </trkpt>
      <trkpt lat="43.69521" lon="3.05417">
        <ele>895.5</ele>
        <time>2014-06-23T08:51:13Z</time>
      </trkpt>
      <trkpt lat="43.69531" lon="3.05618">
        <ele>897.9</ele>
        <time>2014-06-23T08:52:08Z</time>
      </trkpt>
      <trkpt lat="43.69523" lon="3.05663">
        <ele>900.1</ele>
        <time>2014-06-23T08:52:24Z</time>
      </trkpt>
      <trkpt lat="43.69462" lon="3.05806">
        <ele>914.5</ele>
        <time>2014-06-23T08:53:54Z</time>
      </trkpt>
      <trkpt lat="43.69418" lon="3.05851">
        <ele>920.7</ele>
        <time>2014-06-23T08:54:34Z</time>
      </trkpt>
      <trkpt lat="43.69375" lon="3.0593">
        <ele>918.1</ele>
        <time>2014-06-23T08:55:02Z</time>
      </trkpt>
      <trkpt lat="43.69389" lon="3.05995">
        <ele>914.8</ele>
        <time>2014-06-23T08:55:17Z</time>
      </trkpt>
      <trkpt lat="43.69488" lon="3.06051">
        <ele>905.3</ele>
        <time>2014-06-23T08:55:35Z</time>
      </trkpt>
      <trkpt lat="43.6957" lon="3.06082">
        <ele>908.5</ele>
        <time>2014-06-23T08:55:55Z</time>
      </trkpt>
      <trkpt lat="43.69662" lon="3.06038">
        <ele>912.6</ele>
        <time>2014-06-23T08:56:22Z</time>
      </trkpt>
      <trkpt lat="43.6976" lon="3.05926">
        <ele>918.5</ele>
        <time>2014-06-23T08:57:18Z</time>
      </trkpt>
      <trkpt lat="43.69859" lon="3.05927">
        <ele>926.1</ele>
        <time>2014-06-23T08:58:19Z</time>
      </trkpt>
      <trkpt lat="43.69926" lon="3.0599">
        <ele>927.7</ele>
        <time>2014-06-23T08:58:43Z</time>
      </trkpt>
      <trkpt lat="43.70021" lon="3.06026">
        <ele>925.7</ele>
        <time>2014-06-23T08:59:14Z</time>
      </trkpt>
      <trkpt lat="43.70076" lon="3.06011">
        <ele>924.1</ele>
        <time>2014-06-23T08:59:29Z</time>
      </trkpt>
      <trkpt lat="43.70205" lon="3.05798">
        <ele>909.6</ele>
        <time>2014-06-23T09:00:02Z</time>
      </trkpt>
      <trkpt lat="43.70245" lon="3.05762">
        <ele>905.9</ele>
        <time>2014-06-23T09:00:15Z</time>
      </trkpt>
      <trkpt lat="43.70287" lon="3.05801">
        <ele>908.6</ele>
        <time>2014-06-23T09:00:35Z</time>
      </trkpt>
      <trkpt lat="43.70382" lon="3.05852">
        <ele>915.2</ele>
        <time>2014-06-23T09:01:24Z</time>
      </trkpt>
      <trkpt lat="43.70442" lon="3.05849">
        <ele>919.1</ele>
        <time>2014-06-23T09:01:56Z</time>
      </trkpt>
      <trkpt lat="43.70485" lon="3.0588">
        <ele>922.3</ele>
        <time>2014-06-23T09:02:19Z</time>
      </trkpt>
      <trkpt lat="43.70508" lon="3.05985">
        <ele>927.4</ele>
        <time>2014-06-23T09:03:03Z</time>
      </trkpt>
      <trkpt lat="43.70504" lon="3.06117">
        <ele>934.7</ele>
        <time>2014-06-23T09:06:09Z</time>
      </trkpt>
      <trkpt lat="43.70488" lon="3.06186">
        <ele>933.1</ele>
        <time>2014-06-23T09:06:31Z</time>
      </trkpt>
      <trkpt lat="43.7045" lon="3.06226">
        <ele>935.7</ele>
        <time>2014-06-23T09:06:49Z</time>
      </trkpt>
      <trkpt lat="43.70418" lon="3.06288">
        <ele>935.7</ele>
        <time>2014-06-23T09:07:08Z</time>
      </trkpt>
      <trkpt lat="43.70442" lon="3.06438">
        <ele>931.9</ele>
        <time>2014-06-23T09:07:32Z</time>
      </trkpt>
      <trkpt lat="43.70446" lon="3.06525">
        <ele>929.7</ele>
        <time>2014-06-23T09:07:44Z</time>
      </trkpt>
      <trkpt lat="43.70495" lon="3.06587">
        <ele>925.7</ele>
        <time>2014-06-23T09:07:56Z</time>
      </trkpt>
      <trkpt lat="43.70574" lon="3.06658">
        <ele>925</ele>
        <time>2014-06-23T09:08:22Z</time>
      </trkpt>
      <trkpt lat="43.70613" lon="3.06753">
        <ele>927.8</ele>
        <time>2014-06-23T09:08:46Z</time>
      </trkpt>
      <trkpt lat="43.70659" lon="3.06792">
        <ele>930.7</ele>
        <time>2014-06-23T09:09:12Z</time>
      </trkpt>
      <trkpt lat="43.70717" lon="3.06811">
        <ele>934.7</ele>
        <time>2014-06-23T09:09:47Z</time>
      </trkpt>
      <trkpt lat="43.70844" lon="3.06771">
        <ele>943.1</ele>
        <time>2014-06-23T09:10:59Z</time>
      </trkpt>
      <trkpt lat="43.7088" lon="3.06728">
        <ele>945.7</ele>
        <time>2014-06-23T09:11:21Z</time>
      </trkpt>
      <trkpt lat="43.70927" lon="3.06636">
        <ele>948.5</ele>
        <time>2014-06-23T09:11:54Z</time>
      </trkpt>
      <trkpt lat="43.70972" lon="3.0652">
        <ele>952</ele>
        <time>2014-06-23T09:12:29Z</time>
      </trkpt>
      <trkpt lat="43.71008" lon="3.06504">
        <ele>952.1</ele>
        <time>2014-06-23T09:12:45Z</time>
      </trkpt>
      <trkpt lat="43.71082" lon="3.06547">
        <ele>951.1</ele>
        <time>2014-06-23T09:13:15Z</time>
      </trkpt>
      <trkpt lat="43.71067" lon="3.06647">
        <ele>945.3</ele>
        <time>2014-06-23T09:13:28Z</time>
      </trkpt>
      <trkpt lat="43.71025" lon="3.06735">
        <ele>938.8</ele>
        <time>2014-06-23T09:13:39Z</time>
      </trkpt>
      <trkpt lat="43.70989" lon="3.06842">
        <ele>928.7</ele>
        <time>2014-06-23T09:14:15Z</time>
      </trkpt>
      <trkpt lat="43.70914" lon="3.06938">
        <ele>917.1</ele>
        <time>2014-06-23T09:14:35Z</time>
      </trkpt>
      <trkpt lat="43.70864" lon="3.07069">
        <ele>906.1</ele>
        <time>2014-06-23T09:15:00Z</time>
      </trkpt>
      <trkpt lat="43.7079" lon="3.07112">
        <ele>896.6</ele>
        <time>2014-06-23T09:15:40Z</time>
      </trkpt>
      <trkpt lat="43.70749" lon="3.07147">
        <ele>893.1</ele>
        <time>2014-06-23T09:15:50Z</time>
      </trkpt>
      <trkpt lat="43.70686" lon="3.07245">
        <ele>883.5</ele>
        <time>2014-06-23T09:17:21Z</time>
      </trkpt>
      <trkpt lat="43.7072" lon="3.07339">
        <ele>875.6</ele>
        <time>2014-06-23T09:17:38Z</time>
      </trkpt>
      <trkpt lat="43.70735" lon="3.0744">
        <ele>867.5</ele>
        <time>2014-06-23T09:17:51Z</time>
      </trkpt>
      <trkpt lat="43.70747" lon="3.07709">
        <ele>852.7</ele>
        <time>2014-06-23T09:18:22Z</time>
      </trkpt>
      <trkpt lat="43.70758" lon="3.07727">
        <ele>852.1</ele>
        <time>2014-06-23T09:18:25Z</time>
      </trkpt>
      <trkpt lat="43.70859" lon="3.07754">
        <ele>850.4</ele>
        <time>2014-06-23T09:19:54Z</time>
      </trkpt>
      <trkpt lat="43.70952" lon="3.07752">
        <ele>856.6</ele>
        <time>2014-06-23T09:20:40Z</time>
      </trkpt>
      <trkpt lat="43.70982" lon="3.07762">
        <ele>858.1</ele>
        <time>2014-06-23T09:21:22Z</time>
      </trkpt>
      <trkpt lat="43.71002" lon="3.07823">
        <ele>861.5</ele>
        <time>2014-06-23T09:21:49Z</time>
      </trkpt>
      <trkpt lat="43.71074" lon="3.07922">
        <ele>869.4</ele>
        <time>2014-06-23T09:22:47Z</time>
      </trkpt>
      <trkpt lat="43.71138" lon="3.07929">
        <ele>876.5</ele>
        <time>2014-06-23T09:23:33Z</time>
      </trkpt>
      <trkpt lat="43.71103" lon="3.07989">
        <ele>874.7</ele>
        <time>2014-06-23T09:24:05Z</time>
      </trkpt>
      <trkpt lat="43.71076" lon="3.0811">
        <ele>861.9</ele>
        <time>2014-06-23T09:24:30Z</time>
      </trkpt>
      <trkpt lat="43.71071" lon="3.08314">
        <ele>845.6</ele>
        <time>2014-06-23T09:25:11Z</time>
      </trkpt>
      <trkpt lat="43.71042" lon="3.08383">
        <ele>839</ele>
        <time>2014-06-23T09:25:24Z</time>
      </trkpt>
      <trkpt lat="43.7108" lon="3.08329">
        <ele>832.7</ele>
        <time>2014-06-23T09:36:33Z</time>
      </trkpt>
      <trkpt lat="43.71097" lon="3.08207">
        <ele>829.7</ele>
        <time>2014-06-23T09:36:56Z</time>
      </trkpt>
      <trkpt lat="43.71154" lon="3.0809">
        <ele>823.3</ele>
        <time>2014-06-23T09:37:14Z</time>
      </trkpt>
      <trkpt lat="43.71217" lon="3.08034">
        <ele>816.8</ele>
        <time>2014-06-23T09:37:26Z</time>
      </trkpt>
      <trkpt lat="43.71173" lon="3.08119">
        <ele>804</ele>
        <time>2014-06-23T09:37:55Z</time>
      </trkpt>
      <trkpt lat="43.71152" lon="3.08237">
        <ele>798.5</ele>
        <time>2014-06-23T09:39:19Z</time>
      </trkpt>
      <trkpt lat="43.71191" lon="3.08584">
        <ele>767.7</ele>
        <time>2014-06-23T09:40:03Z</time>
      </trkpt>
      <trkpt lat="43.71196" lon="3.08703">
        <ele>759.2</ele>
        <time>2014-06-23T09:40:17Z</time>
      </trkpt>
      <trkpt lat="43.71261" lon="3.0891">
        <ele>740.9</ele>
        <time>2014-06-23T09:40:44Z</time>
      </trkpt>
      <trkpt lat="43.71176" lon="3.09104">
        <ele>724.6</ele>
        <time>2014-06-23T09:41:14Z</time>
      </trkpt>
      <trkpt lat="43.71142" lon="3.09155">
        <ele>718.5</ele>
        <time>2014-06-23T09:41:49Z</time>
      </trkpt>
      <trkpt lat="43.71016" lon="3.09278">
        <ele>708.8</ele>
        <time>2014-06-23T09:42:15Z</time>
      </trkpt>
      <trkpt lat="43.70947" lon="3.0932">
        <ele>704.1</ele>
        <time>2014-06-23T09:42:26Z</time>
      </trkpt>
      <trkpt lat="43.70873" lon="3.09328">
        <ele>697.4</ele>
        <time>2014-06-23T09:42:46Z</time>
      </trkpt>
      <trkpt lat="43.7081" lon="3.09384">
        <ele>692.2</ele>
        <time>2014-06-23T09:43:02Z</time>
      </trkpt>
      <trkpt lat="43.70842" lon="3.09435">
        <ele>687.6</ele>
        <time>2014-06-23T09:43:17Z</time>
      </trkpt>
      <trkpt lat="43.70903" lon="3.09478">
        <ele>684</ele>
        <time>2014-06-23T09:43:30Z</time>
      </trkpt>
      <trkpt lat="43.70959" lon="3.09553">
        <ele>680.8</ele>
        <time>2014-06-23T09:43:43Z</time>
      </trkpt>
      <trkpt lat="43.70997" lon="3.09584">
        <ele>679.7</ele>
        <time>2014-06-23T09:43:51Z</time>
      </trkpt>
      <trkpt lat="43.70969" lon="3.0968">
        <ele>675.6</ele>
        <time>2014-06-23T09:44:10Z</time>
      </trkpt>
      <trkpt lat="43.709" lon="3.09868">
        <ele>667.8</ele>
        <time>2014-06-23T09:44:39Z</time>
      </trkpt>
      <trkpt lat="43.7083" lon="3.09956">
        <ele>663.5</ele>
        <time>2014-06-23T09:44:55Z</time>
      </trkpt>
      <trkpt lat="43.70852" lon="3.10087">
        <ele>658.4</ele>
        <time>2014-06-23T09:45:14Z</time>
      </trkpt>
      <trkpt lat="43.70923" lon="3.10281">
        <ele>666.2</ele>
        <time>2014-06-23T09:46:23Z</time>
      </trkpt>
      <trkpt lat="43.70894" lon="3.10349">
        <ele>669.2</ele>
        <time>2014-06-23T09:46:54Z</time>
      </trkpt>
      <trkpt lat="43.70879" lon="3.10394">
        <ele>672.6</ele>
        <time>2014-06-23T09:47:17Z</time>
      </trkpt>
      <trkpt lat="43.70867" lon="3.10477">
        <ele>676.9</ele>
        <time>2014-06-23T09:47:52Z</time>
      </trkpt>
      <trkpt lat="43.70799" lon="3.10521">
        <ele>682.2</ele>
        <time>2014-06-23T09:48:32Z</time>
      </trkpt>
      <trkpt lat="43.7076" lon="3.10578">
        <ele>685.9</ele>
        <time>2014-06-23T09:49:01Z</time>
      </trkpt>
      <trkpt lat="43.70757" lon="3.10677">
        <ele>684.7</ele>
        <time>2014-06-23T09:53:03Z</time>
      </trkpt>
      <trkpt lat="43.70745" lon="3.10729">
        <ele>681.5</ele>
        <time>2014-06-23T09:53:09Z</time>
      </trkpt>
      <trkpt lat="43.70787" lon="3.10802">
        <ele>676.2</ele>
        <time>2014-06-23T09:53:20Z</time>
      </trkpt>
      <trkpt lat="43.70808" lon="3.10912">
        <ele>670.1</ele>
        <time>2014-06-23T09:53:34Z</time>
      </trkpt>
      <trkpt lat="43.70746" lon="3.10946">
        <ele>666.5</ele>
        <time>2014-06-23T09:53:44Z</time>
      </trkpt>
      <trkpt lat="43.70698" lon="3.1094">
        <ele>664.4</ele>
        <time>2014-06-23T09:53:51Z</time>
      </trkpt>
      <trkpt lat="43.70624" lon="3.11034">
        <ele>660.2</ele>
        <time>2014-06-23T09:54:06Z</time>
      </trkpt>
      <trkpt lat="43.70574" lon="3.11235">
        <ele>651.9</ele>
        <time>2014-06-23T09:54:28Z</time>
      </trkpt>
      <trkpt lat="43.705" lon="3.11337">
        <ele>647.4</ele>
        <time>2014-06-23T09:54:43Z</time>
      </trkpt>
      <trkpt lat="43.70538" lon="3.1141">
        <ele>643.3</ele>
        <time>2014-06-23T09:55:30Z</time>
      </trkpt>
      <trkpt lat="43.70653" lon="3.11497">
        <ele>640.1</ele>
        <time>2014-06-23T09:55:55Z</time>
      </trkpt>
      <trkpt lat="43.7067" lon="3.11542">
        <ele>639.4</ele>
        <time>2014-06-23T09:56:03Z</time>
      </trkpt>
      <trkpt lat="43.70655" lon="3.11628">
        <ele>639.3</ele>
        <time>2014-06-23T09:56:17Z</time>
      </trkpt>
      <trkpt lat="43.70686" lon="3.11688">
        <ele>638.5</ele>
        <time>2014-06-23T09:56:26Z</time>
      </trkpt>
      <trkpt lat="43.7074" lon="3.11722">
        <ele>638</ele>
        <time>2014-06-23T09:56:37Z</time>
      </trkpt>
      <trkpt lat="43.70779" lon="3.11787">
        <ele>636.9</ele>
        <time>2014-06-23T09:56:49Z</time>
      </trkpt>
      <trkpt lat="43.70751" lon="3.11872">
        <ele>636</ele>
        <time>2014-06-23T09:57:03Z</time>
      </trkpt>
      <trkpt lat="43.70678" lon="3.11834">
        <ele>633</ele>
        <time>2014-06-23T09:57:16Z</time>
      </trkpt>
      <trkpt lat="43.70602" lon="3.11881">
        <ele>630</ele>
        <time>2014-06-23T09:57:34Z</time>
      </trkpt>
      <trkpt lat="43.70505" lon="3.11969">
        <ele>625.5</ele>
        <time>2014-06-23T09:57:54Z</time>
      </trkpt>
      <trkpt lat="43.70458" lon="3.11987">
        <ele>623.7</ele>
        <time>2014-06-23T09:58:02Z</time>
      </trkpt>
      <trkpt lat="43.70404" lon="3.1204">
        <ele>621</ele>
        <time>2014-06-23T09:58:12Z</time>
      </trkpt>
      <trkpt lat="43.7037" lon="3.12121">
        <ele>618.4</ele>
        <time>2014-06-23T09:58:22Z</time>
      </trkpt>
      <trkpt lat="43.70328" lon="3.12155">
        <ele>616.4</ele>
        <time>2014-06-23T09:58:29Z</time>
      </trkpt>
      <trkpt lat="43.70271" lon="3.12263">
        <ele>612.8</ele>
        <time>2014-06-23T09:58:42Z</time>
      </trkpt>
      <trkpt lat="43.70251" lon="3.12316">
        <ele>611.3</ele>
        <time>2014-06-23T09:59:03Z</time>
      </trkpt>
      <trkpt lat="43.70184" lon="3.12412">
        <ele>617.5</ele>
        <time>2014-06-23T09:59:57Z</time>
      </trkpt>
      <trkpt lat="43.70156" lon="3.12496">
        <ele>619.7</ele>
        <time>2014-06-23T10:01:00Z</time>
      </trkpt>
      <trkpt lat="43.70235" lon="3.12333">
        <ele>613.2</ele>
        <time>2014-06-23T10:01:33Z</time>
      </trkpt>
      <trkpt lat="43.70179" lon="3.12206">
        <ele>611.3</ele>
        <time>2014-06-23T10:02:23Z</time>
      </trkpt>
      <trkpt lat="43.70043" lon="3.12167">
        <ele>606</ele>
        <time>2014-06-23T10:02:49Z</time>
      </trkpt>
      <trkpt lat="43.69991" lon="3.1214">
        <ele>603.4</ele>
        <time>2014-06-23T10:02:57Z</time>
      </trkpt>
      <trkpt lat="43.69959" lon="3.12076">
        <ele>601.4</ele>
        <time>2014-06-23T10:03:03Z</time>
      </trkpt>
      <trkpt lat="43.69997" lon="3.12003">
        <ele>598.2</ele>
        <time>2014-06-23T10:03:13Z</time>
      </trkpt>
      <trkpt lat="43.70202" lon="3.11909">
        <ele>589.7</ele>
        <time>2014-06-23T10:03:44Z</time>
      </trkpt>
      <trkpt lat="43.70203" lon="3.1179">
        <ele>585</ele>
        <time>2014-06-23T10:04:01Z</time>
      </trkpt>
      <trkpt lat="43.70252" lon="3.11718">
        <ele>580</ele>
        <time>2014-06-23T10:04:15Z</time>
      </trkpt>
      <trkpt lat="43.70079" lon="3.11763">
        <ele>566.4</ele>
        <time>2014-06-23T10:04:39Z</time>
      </trkpt>
      <trkpt lat="43.69969" lon="3.11845">
        <ele>555</ele>
        <time>2014-06-23T10:04:54Z</time>
      </trkpt>
      <trkpt lat="43.69891" lon="3.11839">
        <ele>544.9</ele>
        <time>2014-06-23T10:05:05Z</time>
      </trkpt>
      <trkpt lat="43.69817" lon="3.11907">
        <ele>534.7</ele>
        <time>2014-06-23T10:05:18Z</time>
      </trkpt>
      <trkpt lat="43.69706" lon="3.12056">
        <ele>512.5</ele>
        <time>2014-06-23T10:05:43Z</time>
      </trkpt>
      <trkpt lat="43.69689" lon="3.1216">
        <ele>501.1</ele>
        <time>2014-06-23T10:05:59Z</time>
      </trkpt>
      <trkpt lat="43.69719" lon="3.12223">
        <ele>498.2</ele>
        <time>2014-06-23T10:06:07Z</time>
      </trkpt>
      <trkpt lat="43.69676" lon="3.12271">
        <ele>495.6</ele>
        <time>2014-06-23T10:06:20Z</time>
      </trkpt>
      <trkpt lat="43.69658" lon="3.12328">
        <ele>492</ele>
        <time>2014-06-23T10:07:22Z</time>
      </trkpt>
      <trkpt lat="43.69693" lon="3.12427">
        <ele>487.6</ele>
        <time>2014-06-23T10:07:45Z</time>
      </trkpt>
      <trkpt lat="43.69559" lon="3.12422">
        <ele>483.8</ele>
        <time>2014-06-23T10:08:10Z</time>
      </trkpt>
      <trkpt lat="43.69503" lon="3.12429">
        <ele>481.6</ele>
        <time>2014-06-23T10:08:21Z</time>
      </trkpt>
      <trkpt lat="43.69472" lon="3.12397">
        <ele>480.6</ele>
        <time>2014-06-23T10:08:28Z</time>
      </trkpt>
      <trkpt lat="43.69464" lon="3.12325">
        <ele>479.4</ele>
        <time>2014-06-23T10:08:38Z</time>
      </trkpt>
      <trkpt lat="43.69425" lon="3.12313">
        <ele>476.4</ele>
        <time>2014-06-23T10:08:46Z</time>
      </trkpt>
      <trkpt lat="43.69279" lon="3.12386">
        <ele>465</ele>
        <time>2014-06-23T10:09:07Z</time>
      </trkpt>
      <trkpt lat="43.69116" lon="3.12399">
        <ele>456.5</ele>
        <time>2014-06-23T10:09:29Z</time>
      </trkpt>
      <trkpt lat="43.69067" lon="3.12499">
        <ele>454.4</ele>
        <time>2014-06-23T10:09:53Z</time>
      </trkpt>
      <trkpt lat="43.69053" lon="3.12665">
        <ele>453.2</ele>
        <time>2014-06-23T10:10:24Z</time>
      </trkpt>
      <trkpt lat="43.69004" lon="3.12643">
        <ele>451.4</ele>
        <time>2014-06-23T10:10:45Z</time>
      </trkpt>
      <trkpt lat="43.68976" lon="3.1252">
        <ele>449.6</ele>
        <time>2014-06-23T10:11:30Z</time>
      </trkpt>
      <trkpt lat="43.68984" lon="3.12331">
        <ele>444.6</ele>
        <time>2014-06-23T10:12:03Z</time>
      </trkpt>
      <trkpt lat="43.68969" lon="3.122">
        <ele>439.6</ele>
        <time>2014-06-23T10:12:17Z</time>
      </trkpt>
      <trkpt lat="43.68954" lon="3.12176">
        <ele>438.4</ele>
        <time>2014-06-23T10:12:21Z</time>
      </trkpt>
      <trkpt lat="43.68903" lon="3.12161">
        <ele>435.6</ele>
        <time>2014-06-23T10:12:35Z</time>
      </trkpt>
      <trkpt lat="43.68915" lon="3.12089">
        <ele>432.9</ele>
        <time>2014-06-23T10:12:44Z</time>
      </trkpt>
      <trkpt lat="43.68863" lon="3.11988">
        <ele>428.5</ele>
        <time>2014-06-23T10:13:00Z</time>
      </trkpt>
      <trkpt lat="43.68784" lon="3.11979">
        <ele>422.9</ele>
        <time>2014-06-23T10:13:12Z</time>
      </trkpt>
      <trkpt lat="43.68772" lon="3.11924">
        <ele>420.7</ele>
        <time>2014-06-23T10:13:20Z</time>
      </trkpt>
      <trkpt lat="43.68686" lon="3.11822">
        <ele>411</ele>
        <time>2014-06-23T10:13:36Z</time>
      </trkpt>
      <trkpt lat="43.68579" lon="3.11705">
        <ele>400.7</ele>
        <time>2014-06-23T10:14:42Z</time>
      </trkpt>
      <trkpt lat="43.68462" lon="3.11606">
        <ele>391.5</ele>
        <time>2014-06-23T10:15:04Z</time>
      </trkpt>
      <trkpt lat="43.68434" lon="3.11563">
        <ele>387.2</ele>
        <time>2014-06-23T10:15:14Z</time>
      </trkpt>
      <trkpt lat="43.68302" lon="3.11501">
        <ele>377.6</ele>
        <time>2014-06-23T10:15:37Z</time>
      </trkpt>
      <trkpt lat="43.68169" lon="3.11411">
        <ele>367.5</ele>
        <time>2014-06-23T10:16:00Z</time>
      </trkpt>
      <trkpt lat="43.68051" lon="3.11391">
        <ele>359.6</ele>
        <time>2014-06-23T10:16:19Z</time>
      </trkpt>
      <trkpt lat="43.67978" lon="3.11405">
        <ele>356.6</ele>
        <time>2014-06-23T10:16:32Z</time>
      </trkpt>
      <trkpt lat="43.67933" lon="3.11474">
        <ele>355.8</ele>
        <time>2014-06-23T10:17:07Z</time>
      </trkpt>
      <trkpt lat="43.67895" lon="3.11474">
        <ele>353</ele>
        <time>2014-06-23T10:17:18Z</time>
      </trkpt>
      <trkpt lat="43.67848" lon="3.11485">
        <ele>349.5</ele>
        <time>2014-06-23T10:17:32Z</time>
      </trkpt>
      <trkpt lat="43.67832" lon="3.11425">
        <ele>349.3</ele>
        <time>2014-06-23T10:29:56Z</time>
      </trkpt>
      <trkpt lat="43.67837" lon="3.11434">
        <ele>324.2</ele>
        <time>2014-06-23T12:09:47Z</time>
      </trkpt>
      <trkpt lat="43.67872" lon="3.11466">
        <ele>325.8</ele>
        <time>2014-06-23T12:10:27Z</time>
      </trkpt>
      <trkpt lat="43.6796" lon="3.11472">
        <ele>332.8</ele>
        <time>2014-06-23T12:11:29Z</time>
      </trkpt>
      <trkpt lat="43.68069" lon="3.11417">
        <ele>342</ele>
        <time>2014-06-23T12:12:57Z</time>
      </trkpt>
      <trkpt lat="43.68187" lon="3.11445">
        <ele>354</ele>
        <time>2014-06-23T12:14:28Z</time>
      </trkpt>
      <trkpt lat="43.68221" lon="3.11462">
        <ele>357.6</ele>
        <time>2014-06-23T12:14:56Z</time>
      </trkpt>
      <trkpt lat="43.68309" lon="3.11534">
        <ele>366.7</ele>
        <time>2014-06-23T12:16:09Z</time>
      </trkpt>
      <trkpt lat="43.68408" lon="3.11582">
        <ele>375.5</ele>
        <time>2014-06-23T12:17:23Z</time>
      </trkpt>
      <trkpt lat="43.68541" lon="3.11744">
        <ele>393.5</ele>
        <time>2014-06-23T12:19:47Z</time>
      </trkpt>
      <trkpt lat="43.68478" lon="3.11688">
        <ele>396.2</ele>
        <time>2014-06-23T12:20:32Z</time>
      </trkpt>
      <trkpt lat="43.68393" lon="3.1163">
        <ele>400.6</ele>
        <time>2014-06-23T12:21:20Z</time>
      </trkpt>
      <trkpt lat="43.68347" lon="3.11613">
        <ele>403.6</ele>
        <time>2014-06-23T12:21:43Z</time>
      </trkpt>
      <trkpt lat="43.68188" lon="3.11572">
        <ele>413.5</ele>
        <time>2014-06-23T12:23:08Z</time>
      </trkpt>
      <trkpt lat="43.68154" lon="3.1158">
        <ele>415.2</ele>
        <time>2014-06-23T12:23:26Z</time>
      </trkpt>
      <trkpt lat="43.6809" lon="3.11655">
        <ele>422</ele>
        <time>2014-06-23T12:24:19Z</time>
      </trkpt>
      <trkpt lat="43.68002" lon="3.11662">
        <ele>431</ele>
        <time>2014-06-23T12:25:23Z</time>
      </trkpt>
      <trkpt lat="43.67895" lon="3.11836">
        <ele>444.7</ele>
        <time>2014-06-23T12:27:19Z</time>
      </trkpt>
      <trkpt lat="43.67912" lon="3.11951">
        <ele>451.8</ele>
        <time>2014-06-23T12:28:15Z</time>
      </trkpt>
      <trkpt lat="43.67957" lon="3.12081">
        <ele>460.7</ele>
        <time>2014-06-23T12:29:23Z</time>
      </trkpt>
      <trkpt lat="43.6796" lon="3.1215">
        <ele>465.1</ele>
        <time>2014-06-23T12:29:58Z</time>
      </trkpt>
      <trkpt lat="43.67934" lon="3.12265">
        <ele>472.4</ele>
        <time>2014-06-23T12:30:56Z</time>
      </trkpt>
      <trkpt lat="43.67917" lon="3.12428">
        <ele>484.3</ele>
        <time>2014-06-23T12:32:27Z</time>
      </trkpt>
      <trkpt lat="43.67874" lon="3.12444">
        <ele>487.1</ele>
        <time>2014-06-23T12:32:59Z</time>
      </trkpt>
      <trkpt lat="43.678" lon="3.1251">
        <ele>495.3</ele>
        <time>2014-06-23T12:34:04Z</time>
      </trkpt>
      <trkpt lat="43.6775" lon="3.12539">
        <ele>499.1</ele>
        <time>2014-06-23T12:34:44Z</time>
      </trkpt>
      <trkpt lat="43.67686" lon="3.12626">
        <ele>507.4</ele>
        <time>2014-06-23T12:35:50Z</time>
      </trkpt>
      <trkpt lat="43.67675" lon="3.12701">
        <ele>512.9</ele>
        <time>2014-06-23T12:36:32Z</time>
      </trkpt>
      <trkpt lat="43.67738" lon="3.12778">
        <ele>516.1</ele>
        <time>2014-06-23T12:37:21Z</time>
      </trkpt>
      <trkpt lat="43.67838" lon="3.12864">
        <ele>522.8</ele>
        <time>2014-06-23T12:38:32Z</time>
      </trkpt>
      <trkpt lat="43.67895" lon="3.12953">
        <ele>527.5</ele>
        <time>2014-06-23T12:39:26Z</time>
      </trkpt>
      <trkpt lat="43.67983" lon="3.13034">
        <ele>528.6</ele>
        <time>2014-06-23T12:49:32Z</time>
      </trkpt>
      <trkpt lat="43.67973" lon="3.13115">
        <ele>522.3</ele>
        <time>2014-06-23T12:49:45Z</time>
      </trkpt>
      <trkpt lat="43.67939" lon="3.13157">
        <ele>515.2</ele>
        <time>2014-06-23T12:49:54Z</time>
      </trkpt>
      <trkpt lat="43.67904" lon="3.13111">
        <ele>513.3</ele>
        <time>2014-06-23T12:58:30Z</time>
      </trkpt>
      <trkpt lat="43.679" lon="3.13174">
        <ele>511.8</ele>
        <time>2014-06-23T12:58:45Z</time>
      </trkpt>
      <trkpt lat="43.67869" lon="3.13258">
        <ele>506.3</ele>
        <time>2014-06-23T12:58:56Z</time>
      </trkpt>
      <trkpt lat="43.67694" lon="3.13516">
        <ele>487.6</ele>
        <time>2014-06-23T12:59:31Z</time>
      </trkpt>
      <trkpt lat="43.67563" lon="3.13825">
        <ele>467.3</ele>
        <time>2014-06-23T13:00:04Z</time>
      </trkpt>
      <trkpt lat="43.67403" lon="3.13985">
        <ele>446.7</ele>
        <time>2014-06-23T13:00:30Z</time>
      </trkpt>
      <trkpt lat="43.67343" lon="3.13986">
        <ele>441</ele>
        <time>2014-06-23T13:00:38Z</time>
      </trkpt>
      <trkpt lat="43.67292" lon="3.13938">
        <ele>436</ele>
        <time>2014-06-23T13:00:46Z</time>
      </trkpt>
      <trkpt lat="43.6722" lon="3.13819">
        <ele>424.2</ele>
        <time>2014-06-23T13:01:00Z</time>
      </trkpt>
      <trkpt lat="43.67059" lon="3.1373">
        <ele>423.5</ele>
        <time>2014-06-23T13:01:43Z</time>
      </trkpt>
      <trkpt lat="43.66991" lon="3.13733">
        <ele>430.4</ele>
        <time>2014-06-23T13:02:27Z</time>
      </trkpt>
      <trkpt lat="43.66925" lon="3.13754">
        <ele>435.5</ele>
        <time>2014-06-23T13:03:10Z</time>
      </trkpt>
      <trkpt lat="43.66886" lon="3.13774">
        <ele>437.7</ele>
        <time>2014-06-23T13:03:32Z</time>
      </trkpt>
      <trkpt lat="43.66761" lon="3.13958">
        <ele>436.3</ele>
        <time>2014-06-23T13:04:34Z</time>
      </trkpt>
      <trkpt lat="43.66721" lon="3.13993">
        <ele>435.8</ele>
        <time>2014-06-23T13:04:48Z</time>
      </trkpt>
      <trkpt lat="43.66667" lon="3.1394">
        <ele>432.3</ele>
        <time>2014-06-23T13:05:09Z</time>
      </trkpt>
      <trkpt lat="43.66602" lon="3.137">
        <ele>425.8</ele>
        <time>2014-06-23T13:05:43Z</time>
      </trkpt>
      <trkpt lat="43.6653" lon="3.13655">
        <ele>421.3</ele>
        <time>2014-06-23T13:06:00Z</time>
      </trkpt>
      <trkpt lat="43.66459" lon="3.1355">
        <ele>414.6</ele>
        <time>2014-06-23T13:06:13Z</time>
      </trkpt>
      <trkpt lat="43.66426" lon="3.13522">
        <ele>414.5</ele>
        <time>2014-06-23T13:06:20Z</time>
      </trkpt>
      <trkpt lat="43.66293" lon="3.13496">
        <ele>407.5</ele>
        <time>2014-06-23T13:06:43Z</time>
      </trkpt>
      <trkpt lat="43.66218" lon="3.13504">
        <ele>397.9</ele>
        <time>2014-06-23T13:06:56Z</time>
      </trkpt>
      <trkpt lat="43.66133" lon="3.13542">
        <ele>385.3</ele>
        <time>2014-06-23T13:07:11Z</time>
      </trkpt>
      <trkpt lat="43.6605" lon="3.13471">
        <ele>375.8</ele>
        <time>2014-06-23T13:07:25Z</time>
      </trkpt>
      <trkpt lat="43.66038" lon="3.13521">
        <ele>377.8</ele>
        <time>2014-06-23T13:10:39Z</time>
      </trkpt>
      <trkpt lat="43.66058" lon="3.13628">
        <ele>380.4</ele>
        <time>2014-06-23T13:11:24Z</time>
      </trkpt>
      <trkpt lat="43.65934" lon="3.13882">
        <ele>379.5</ele>
        <time>2014-06-23T13:12:32Z</time>
      </trkpt>
      <trkpt lat="43.65924" lon="3.13976">
        <ele>375.4</ele>
        <time>2014-06-23T13:12:45Z</time>
      </trkpt>
      <trkpt lat="43.65885" lon="3.14088">
        <ele>357</ele>
        <time>2014-06-23T13:13:30Z</time>
      </trkpt>
      <trkpt lat="43.65927" lon="3.14153">
        <ele>341.7</ele>
        <time>2014-06-23T13:13:57Z</time>
      </trkpt>
      <trkpt lat="43.65927" lon="3.14301">
        <ele>331.1</ele>
        <time>2014-06-23T13:14:24Z</time>
      </trkpt>
      <trkpt lat="43.65876" lon="3.14404">
        <ele>323</ele>
        <time>2014-06-23T13:14:41Z</time>
      </trkpt>
      <trkpt lat="43.65852" lon="3.14535">
        <ele>313.9</ele>
        <time>2014-06-23T13:14:59Z</time>
      </trkpt>
      <trkpt lat="43.6583" lon="3.14685">
        <ele>312.9</ele>
        <time>2014-06-23T13:18:00Z</time>
      </trkpt>
      <trkpt lat="43.65844" lon="3.14786">
        <ele>300.7</ele>
        <time>2014-06-23T13:18:17Z</time>
      </trkpt>
      <trkpt lat="43.6587" lon="3.14849">
        <ele>287.7</ele>
        <time>2014-06-23T13:18:36Z</time>
      </trkpt>
      <trkpt lat="43.65911" lon="3.14789">
        <ele>282.4</ele>
        <time>2014-06-23T13:18:51Z</time>
      </trkpt>
      <trkpt lat="43.65954" lon="3.14831">
        <ele>271.1</ele>
        <time>2014-06-23T13:19:08Z</time>
      </trkpt>
      <trkpt lat="43.65885" lon="3.14966">
        <ele>251.2</ele>
        <time>2014-06-23T13:19:42Z</time>
      </trkpt>
      <trkpt lat="43.65823" lon="3.14981">
        <ele>245.2</ele>
        <time>2014-06-23T13:19:53Z</time>
      </trkpt>
      <trkpt lat="43.65739" lon="3.1493">
        <ele>248.5</ele>
        <time>2014-06-23T13:20:19Z</time>
      </trkpt>
      <trkpt lat="43.65701" lon="3.14929">
        <ele>250.7</ele>
        <time>2014-06-23T13:20:32Z</time>
      </trkpt>
      <trkpt lat="43.65517" lon="3.14844">
        <ele>241.5</ele>
        <time>2014-06-23T13:21:29Z</time>
      </trkpt>
      <trkpt lat="43.65511" lon="3.14898">
        <ele>240.5</ele>
        <time>2014-06-23T13:21:54Z</time>
      </trkpt>
      <trkpt lat="43.65585" lon="3.14942">
        <ele>239.8</ele>
        <time>2014-06-23T13:36:29Z</time>
      </trkpt>
      <trkpt lat="43.65542" lon="3.15093">
        <ele>236.5</ele>
        <time>2014-06-23T13:37:02Z</time>
      </trkpt>
      <trkpt lat="43.65488" lon="3.1516">
        <ele>238.8</ele>
        <time>2014-06-23T13:39:15Z</time>
      </trkpt>
      <trkpt lat="43.65539" lon="3.1519">
        <ele>239</ele>
        <time>2014-06-23T13:39:49Z</time>
      </trkpt>
      <trkpt lat="43.65576" lon="3.15272">
        <ele>244.2</ele>
        <time>2014-06-23T13:40:32Z</time>
      </trkpt>
      <trkpt lat="43.65607" lon="3.15268">
        <ele>246.8</ele>
        <time>2014-06-23T13:40:53Z</time>
      </trkpt>
      <trkpt lat="43.65765" lon="3.15375">
        <ele>240.6</ele>
        <time>2014-06-23T13:41:26Z</time>
      </trkpt>
      <trkpt lat="43.65875" lon="3.15574">
        <ele>241.9</ele>
        <time>2014-06-23T13:42:12Z</time>
      </trkpt>
      <trkpt lat="43.65896" lon="3.15599">
        <ele>241.5</ele>
        <time>2014-06-23T13:42:18Z</time>
      </trkpt>
      <trkpt lat="43.65959" lon="3.15752">
        <ele>241.7</ele>
        <time>2014-06-23T13:42:48Z</time>
      </trkpt>
      <trkpt lat="43.65992" lon="3.15863">
        <ele>241.9</ele>
        <time>2014-06-23T13:43:10Z</time>
      </trkpt>
      <trkpt lat="43.66023" lon="3.1591">
        <ele>242.3</ele>
        <time>2014-06-23T13:43:22Z</time>
      </trkpt>
      <trkpt lat="43.66079" lon="3.15937">
        <ele>242.4</ele>
        <time>2014-06-23T13:43:37Z</time>
      </trkpt>
      <trkpt lat="43.66138" lon="3.16021">
        <ele>242.1</ele>
        <time>2014-06-23T13:43:55Z</time>
      </trkpt>
      <trkpt lat="43.6616" lon="3.1608">
        <ele>242.4</ele>
        <time>2014-06-23T13:44:05Z</time>
      </trkpt>
      <trkpt lat="43.6623" lon="3.1622">
        <ele>242.6</ele>
        <time>2014-06-23T13:44:32Z</time>
      </trkpt>
      <trkpt lat="43.66229" lon="3.16278">
        <ele>244.5</ele>
        <time>2014-06-23T13:44:45Z</time>
      </trkpt>
      <trkpt lat="43.66309" lon="3.16375">
        <ele>245</ele>
        <time>2014-06-23T13:45:13Z</time>
      </trkpt>
      <trkpt lat="43.66472" lon="3.16598">
        <ele>246.6</ele>
        <time>2014-06-23T13:46:12Z</time>
      </trkpt>
      <trkpt lat="43.66465" lon="3.16685">
        <ele>249.6</ele>
        <time>2014-06-23T13:46:35Z</time>
      </trkpt>
      <trkpt lat="43.66475" lon="3.16738">
        <ele>253.2</ele>
        <time>2014-06-23T13:46:58Z</time>
      </trkpt>
      <trkpt lat="43.66522" lon="3.16834">
        <ele>260.8</ele>
        <time>2014-06-23T13:47:53Z</time>
      </trkpt>
      <trkpt lat="43.66474" lon="3.16983">
        <ele>257.5</ele>
        <time>2014-06-23T13:48:41Z</time>
      </trkpt>
      <trkpt lat="43.66459" lon="3.17092">
        <ele>259.1</ele>
        <time>2014-06-23T13:49:11Z</time>
      </trkpt>
      <trkpt lat="43.66393" lon="3.17208">
        <ele>265.6</ele>
        <time>2014-06-23T13:50:01Z</time>
      </trkpt>
      <trkpt lat="43.66355" lon="3.17302">
        <ele>270.6</ele>
        <time>2014-06-23T13:50:41Z</time>
      </trkpt>
      <trkpt lat="43.66253" lon="3.1752">
        <ele>271.8</ele>
        <time>2014-06-23T13:51:46Z</time>
      </trkpt>
      <trkpt lat="43.66223" lon="3.17579">
        <ele>271.7</ele>
        <time>2014-06-23T13:52:00Z</time>
      </trkpt>
      <trkpt lat="43.66226" lon="3.17626">
        <ele>273</ele>
        <time>2014-06-23T13:52:26Z</time>
      </trkpt>
      <trkpt lat="43.66195" lon="3.1762">
        <ele>275.2</ele>
        <time>2014-06-23T13:52:41Z</time>
      </trkpt>
      <trkpt lat="43.66053" lon="3.17761">
        <ele>277.7</ele>
        <time>2014-06-23T13:53:44Z</time>
      </trkpt>
      <trkpt lat="43.66008" lon="3.17871">
        <ele>281.7</ele>
        <time>2014-06-23T13:54:19Z</time>
      </trkpt>
      <trkpt lat="43.65859" lon="3.18024">
        <ele>290.3</ele>
        <time>2014-06-23T13:55:48Z</time>
      </trkpt>
      <trkpt lat="43.65812" lon="3.18052">
        <ele>293.7</ele>
        <time>2014-06-23T13:56:13Z</time>
      </trkpt>
      <trkpt lat="43.65748" lon="3.18052">
        <ele>289.3</ele>
        <time>2014-06-23T13:56:27Z</time>
      </trkpt>
      <trkpt lat="43.65702" lon="3.18035">
        <ele>286.4</ele>
        <time>2014-06-23T13:56:34Z</time>
      </trkpt>
      <trkpt lat="43.65568" lon="3.18055">
        <ele>278.2</ele>
        <time>2014-06-23T13:56:51Z</time>
      </trkpt>
      <trkpt lat="43.65341" lon="3.18044">
        <ele>260.3</ele>
        <time>2014-06-23T13:57:18Z</time>
      </trkpt>
      <trkpt lat="43.65275" lon="3.18001">
        <ele>249.1</ele>
        <time>2014-06-23T13:57:38Z</time>
      </trkpt>
      <trkpt lat="43.65213" lon="3.18111">
        <ele>249.4</ele>
        <time>2014-06-23T13:58:12Z</time>
      </trkpt>
      <trkpt lat="43.65274" lon="3.18357">
        <ele>252.9</ele>
        <time>2014-06-23T13:59:12Z</time>
      </trkpt>
      <trkpt lat="43.65251" lon="3.18499">
        <ele>253.6</ele>
        <time>2014-06-23T13:59:44Z</time>
      </trkpt>
      <trkpt lat="43.6525" lon="3.18587">
        <ele>254.4</ele>
        <time>2014-06-23T14:00:00Z</time>
      </trkpt>
      <trkpt lat="43.65284" lon="3.1899">
        <ele>257.8</ele>
        <time>2014-06-23T14:01:15Z</time>
      </trkpt>
      <trkpt lat="43.6526" lon="3.19094">
        <ele>259.5</ele>
        <time>2014-06-23T14:01:37Z</time>
      </trkpt>
      <trkpt lat="43.6523" lon="3.1941">
        <ele>264.6</ele>
        <time>2014-06-23T14:02:39Z</time>
      </trkpt>
      <trkpt lat="43.65173" lon="3.1956">
        <ele>267.7</ele>
        <time>2014-06-23T14:03:10Z</time>
      </trkpt>
      <trkpt lat="43.65177" lon="3.19654">
        <ele>266.8</ele>
        <time>2014-06-23T14:03:23Z</time>
      </trkpt>
      <trkpt lat="43.65223" lon="3.19854">
        <ele>267.8</ele>
        <time>2014-06-23T14:03:53Z</time>
      </trkpt>
      <trkpt lat="43.65292" lon="3.20015">
        <ele>269.2</ele>
        <time>2014-06-23T14:04:22Z</time>
      </trkpt>
      <trkpt lat="43.65317" lon="3.20109">
        <ele>270.5</ele>
        <time>2014-06-23T14:04:39Z</time>
      </trkpt>
      <trkpt lat="43.65318" lon="3.20205">
        <ele>272.2</ele>
        <time>2014-06-23T14:04:57Z</time>
      </trkpt>
      <trkpt lat="43.65281" lon="3.20313">
        <ele>274</ele>
        <time>2014-06-23T14:05:19Z</time>
      </trkpt>
      <trkpt lat="43.65275" lon="3.20398">
        <ele>275.2</ele>
        <time>2014-06-23T14:05:35Z</time>
      </trkpt>
      <trkpt lat="43.65302" lon="3.2052">
        <ele>276.5</ele>
        <time>2014-06-23T14:05:58Z</time>
      </trkpt>
      <trkpt lat="43.65338" lon="3.20574">
        <ele>277.7</ele>
        <time>2014-06-23T14:06:12Z</time>
      </trkpt>
      <trkpt lat="43.65394" lon="3.20805">
        <ele>279.8</ele>
        <time>2014-06-23T14:06:53Z</time>
      </trkpt>
      <trkpt lat="43.65412" lon="3.20835">
        <ele>280.6</ele>
        <time>2014-06-23T14:07:00Z</time>
      </trkpt>
      <trkpt lat="43.65459" lon="3.20982">
        <ele>282.2</ele>
        <time>2014-06-23T14:07:28Z</time>
      </trkpt>
      <trkpt lat="43.65494" lon="3.21155">
        <ele>285.3</ele>
        <time>2014-06-23T14:07:59Z</time>
      </trkpt>
      <trkpt lat="43.65541" lon="3.21252">
        <ele>286.1</ele>
        <time>2014-06-23T14:08:20Z</time>
      </trkpt>
      <trkpt lat="43.65576" lon="3.21253">
        <ele>289.5</ele>
        <time>2014-06-23T14:08:43Z</time>
      </trkpt>
      <trkpt lat="43.65633" lon="3.21178">
        <ele>299.5</ele>
        <time>2014-06-23T14:09:57Z</time>
      </trkpt>
      <trkpt lat="43.6564" lon="3.21129">
        <ele>305.9</ele>
        <time>2014-06-23T14:10:33Z</time>
      </trkpt>
      <trkpt lat="43.65676" lon="3.2112">
        <ele>314.6</ele>
        <time>2014-06-23T14:11:24Z</time>
      </trkpt>
      <trkpt lat="43.65694" lon="3.21088">
        <ele>321.1</ele>
        <time>2014-06-23T14:12:07Z</time>
      </trkpt>
      <trkpt lat="43.65791" lon="3.21124">
        <ele>333</ele>
        <time>2014-06-23T14:13:45Z</time>
      </trkpt>
      <trkpt lat="43.65847" lon="3.21121">
        <ele>340.9</ele>
        <time>2014-06-23T14:14:40Z</time>
      </trkpt>
      <trkpt lat="43.65916" lon="3.21149">
        <ele>347.2</ele>
        <time>2014-06-23T14:15:34Z</time>
      </trkpt>
      <trkpt lat="43.65995" lon="3.21161">
        <ele>361.7</ele>
        <time>2014-06-23T14:16:55Z</time>
      </trkpt>
      <trkpt lat="43.66045" lon="3.2119">
        <ele>372.1</ele>
        <time>2014-06-23T14:18:10Z</time>
      </trkpt>
      <trkpt lat="43.66193" lon="3.21121">
        <ele>371.7</ele>
        <time>2014-06-23T14:36:33Z</time>
      </trkpt>
      <trkpt lat="43.6627" lon="3.21122">
        <ele>367.8</ele>
        <time>2014-06-23T14:36:50Z</time>
      </trkpt>
      <trkpt lat="43.66317" lon="3.21144">
        <ele>361.1</ele>
        <time>2014-06-23T14:37:02Z</time>
      </trkpt>
      <trkpt lat="43.6635" lon="3.21199">
        <ele>350.8</ele>
        <time>2014-06-23T14:37:24Z</time>
      </trkpt>
      <trkpt lat="43.66391" lon="3.2119">
        <ele>346.6</ele>
        <time>2014-06-23T14:37:42Z</time>
      </trkpt>
      <trkpt lat="43.66401" lon="3.21263">
        <ele>349.9</ele>
        <time>2014-06-23T14:38:23Z</time>
      </trkpt>
      <trkpt lat="43.66439" lon="3.21314">
        <ele>353.9</ele>
        <time>2014-06-23T14:39:02Z</time>
      </trkpt>
      <trkpt lat="43.66492" lon="3.21232">
        <ele>362</ele>
        <time>2014-06-23T14:40:19Z</time>
      </trkpt>
      <trkpt lat="43.66529" lon="3.21155">
        <ele>368.4</ele>
        <time>2014-06-23T14:41:13Z</time>
      </trkpt>
      <trkpt lat="43.66585" lon="3.21071">
        <ele>375.6</ele>
        <time>2014-06-23T14:42:21Z</time>
      </trkpt>
      <trkpt lat="43.66644" lon="3.21069">
        <ele>379.7</ele>
        <time>2014-06-23T14:43:00Z</time>
      </trkpt>
      <trkpt lat="43.66745" lon="3.21037">
        <ele>388.2</ele>
        <time>2014-06-23T14:44:11Z</time>
      </trkpt>
      <trkpt lat="43.66776" lon="3.2104">
        <ele>389.7</ele>
        <time>2014-06-23T14:44:34Z</time>
      </trkpt>
      <trkpt lat="43.66808" lon="3.2109">
        <ele>394</ele>
        <time>2014-06-23T14:45:21Z</time>
      </trkpt>
      <trkpt lat="43.66786" lon="3.21153">
        <ele>398.4</ele>
        <time>2014-06-23T14:46:36Z</time>
      </trkpt>
      <trkpt lat="43.66758" lon="3.21136">
        <ele>405.1</ele>
        <time>2014-06-23T14:48:48Z</time>
      </trkpt>
      <trkpt lat="43.66758" lon="3.21104">
        <ele>407.7</ele>
        <time>2014-06-23T14:49:37Z</time>
      </trkpt>
      <trkpt lat="43.66732" lon="3.21086">
        <ele>403.5</ele>
        <time>2014-06-23T14:50:17Z</time>
      </trkpt>
      <trkpt lat="43.66743" lon="3.21077">
        <ele>402</ele>
        <time>2014-06-23T14:51:51Z</time>
      </trkpt>
      <trkpt lat="43.66687" lon="3.21105">
        <ele>401</ele>
        <time>2014-06-23T14:52:23Z</time>
      </trkpt>
      <trkpt lat="43.6667" lon="3.21057">
        <ele>399</ele>
        <time>2014-06-23T14:52:35Z</time>
      </trkpt>
      <trkpt lat="43.66718" lon="3.21056">
        <ele>384</ele>
        <time>2014-06-23T14:55:50Z</time>
      </trkpt>
      <trkpt lat="43.66756" lon="3.21109">
        <ele>387.8</ele>
        <time>2014-06-23T14:56:27Z</time>
      </trkpt>
      <trkpt lat="43.66845" lon="3.21036">
        <ele>392.1</ele>
        <time>2014-06-23T14:57:20Z</time>
      </trkpt>
      <trkpt lat="43.66883" lon="3.20964">
        <ele>399.7</ele>
        <time>2014-06-23T14:58:29Z</time>
      </trkpt>
      <trkpt lat="43.6688" lon="3.21037">
        <ele>403.3</ele>
        <time>2014-06-23T14:59:15Z</time>
      </trkpt>
      <trkpt lat="43.66956" lon="3.2099">
        <ele>413.7</ele>
        <time>2014-06-23T15:00:33Z</time>
      </trkpt>
      <trkpt lat="43.6694" lon="3.20955">
        <ele>417.1</ele>
        <time>2014-06-23T15:36:06Z</time>
      </trkpt>
    </trkseg>
  </trk>
</gpx>